createdAt,value
2019-01-30T00:00:40.791Z,-1.71
2019-01-30T00:03:07.645Z,-1.68
2019-01-30T00:05:34.531Z,-1.65
2019-01-30T00:08:01.436Z,-1.72
2019-01-30T00:10:28.317Z,-1.76
2019-01-30T00:12:55.350Z,-1.82
2019-01-30T00:15:22.587Z,-1.83
2019-01-30T00:17:49.718Z,-1.82
2019-01-30T00:20:16.565Z,-1.78
2019-01-30T00:22:43.752Z,-1.84
2019-01-30T00:25:10.726Z,-1.85
2019-01-30T00:27:37.570Z,-1.83
2019-01-30T00:30:06.282Z,-1.83
2019-01-30T00:32:33.129Z,-1.82
2019-01-30T00:34:59.979Z,-1.78
2019-01-30T00:37:26.802Z,-1.83
2019-01-30T00:39:53.918Z,-1.86
2019-01-30T00:42:20.973Z,-1.85
2019-01-30T00:44:47.798Z,-1.78
2019-01-30T00:47:15.950Z,-1.75
2019-01-30T00:49:43.316Z,-1.70
2019-01-30T00:52:10.155Z,-1.72
2019-01-30T00:54:37.292Z,-1.69
2019-01-30T00:57:04.314Z,-1.68
2019-01-30T00:59:31.488Z,-1.71
2019-01-30T01:02:10.545Z,-1.66
2019-01-30T01:04:37.454Z,-1.61
2019-01-30T01:07:04.206Z,-1.60
2019-01-30T01:09:30.964Z,-1.68
2019-01-30T01:11:58.285Z,-1.75
2019-01-30T01:14:25.514Z,-1.77
2019-01-30T01:16:52.274Z,-1.79
2019-01-30T01:19:19.348Z,-1.77
2019-01-30T01:21:46.107Z,-1.72
2019-01-30T01:24:12.959Z,-1.72
2019-01-30T01:26:39.771Z,-1.73
2019-01-30T01:29:06.909Z,-1.78
2019-01-30T01:31:33.662Z,-1.69
2019-01-30T01:34:00.501Z,-1.86
2019-01-30T01:36:27.344Z,-1.88
2019-01-30T01:38:54.196Z,-1.90
2019-01-30T01:41:21.114Z,-1.87
2019-01-30T01:43:47.971Z,-1.95
2019-01-30T01:46:15.027Z,-1.99
2019-01-30T01:48:41.837Z,-2.02
2019-01-30T01:51:08.586Z,-2.01
2019-01-30T01:53:35.718Z,-2.02
2019-01-30T01:56:02.992Z,-2.00
2019-01-30T01:58:29.745Z,-2.05
2019-01-30T02:00:56.907Z,-2.00
2019-01-30T02:03:23.795Z,-1.92
2019-01-30T02:05:50.556Z,-2.03
2019-01-30T02:08:17.398Z,-1.99
2019-01-30T02:10:44.211Z,-2.00
2019-01-30T02:13:10.967Z,-1.99
2019-01-30T02:15:37.748Z,-2.00
2019-01-30T02:18:04.556Z,-1.94
2019-01-30T02:20:32.037Z,-1.85
2019-01-30T02:22:58.902Z,-1.87
2019-01-30T02:25:26.051Z,-1.97
2019-01-30T02:27:53.175Z,-1.99
2019-01-30T02:30:22.073Z,-2.01
2019-01-30T02:32:49.006Z,-2.01
2019-01-30T02:35:15.848Z,-2.00
2019-01-30T02:37:42.736Z,-1.99
2019-01-30T02:40:29.178Z,-2.02
2019-01-30T02:42:56.063Z,-2.02
2019-01-30T02:45:23.947Z,-2.07
2019-01-30T02:47:50.889Z,-2.07
2019-01-30T02:50:17.877Z,-2.06
2019-01-30T02:52:44.670Z,-2.07
2019-01-30T02:55:53.192Z,-2.08
2019-01-30T02:58:20.071Z,-2.03
2019-01-30T03:00:58.525Z,-2.08
2019-01-30T03:03:15.814Z,-2.01
2019-01-30T03:05:42.627Z,-2.10
2019-01-30T03:08:09.384Z,-2.10
2019-01-30T03:10:36.194Z,-2.01
2019-01-30T03:13:03.068Z,-2.08
2019-01-30T03:15:29.807Z,-2.15
2019-01-30T03:17:56.710Z,-2.05
2019-01-30T03:20:24.646Z,-2.16
2019-01-30T03:22:51.395Z,-2.13
2019-01-30T03:25:18.776Z,-2.18
2019-01-30T03:27:45.539Z,-2.12
2019-01-30T03:30:54.826Z,-2.14
2019-01-30T03:33:21.570Z,-2.16
2019-01-30T03:35:48.317Z,-2.18
2019-01-30T03:38:34.648Z,-2.09
2019-01-30T03:41:01.506Z,-2.09
2019-01-30T03:43:47.839Z,-2.08
2019-01-30T03:46:14.594Z,-2.08
2019-01-30T03:49:01.123Z,-1.94
2019-01-30T03:51:27.879Z,-1.93
2019-01-30T03:53:54.875Z,-1.93
2019-01-30T03:56:22.050Z,-1.95
2019-01-30T03:58:48.794Z,-1.96
2019-01-30T04:01:26.281Z,-1.93
2019-01-30T04:03:44.792Z,-1.98
2019-01-30T04:06:24.052Z,-1.96
2019-01-30T04:08:50.971Z,-1.96
2019-01-30T04:11:37.294Z,-1.93
2019-01-30T04:14:04.213Z,-1.93
2019-01-30T04:16:31.070Z,-1.91
2019-01-30T04:18:57.922Z,-1.95
2019-01-30T04:21:24.723Z,-1.95
2019-01-30T04:24:11.266Z,-2.02
2019-01-30T04:26:38.172Z,-2.02
2019-01-30T04:29:05.067Z,-2.07
2019-01-30T04:31:38.251Z,-2.07
2019-01-30T04:34:00.714Z,-1.99
2019-01-30T04:36:27.464Z,-1.94
2019-01-30T04:38:54.211Z,-1.97
2019-01-30T04:41:21.387Z,-1.96
2019-01-30T04:44:07.652Z,-1.99
2019-01-30T04:46:54.353Z,-1.99
2019-01-30T04:49:21.190Z,-1.99
2019-01-30T04:51:47.941Z,-2.04
2019-01-30T04:54:34.289Z,-1.96
2019-01-30T04:57:01.051Z,-1.96
2019-01-30T04:59:47.358Z,-2.04
2019-01-30T05:02:14.753Z,-2.04
2019-01-30T05:04:41.785Z,-2.04
2019-01-30T05:07:08.877Z,-2.04
2019-01-30T05:09:35.914Z,-2.06
2019-01-30T05:12:22.522Z,-2.01
2019-01-30T05:14:51.900Z,-2.01
2019-01-30T05:17:18.807Z,-2.03
2019-01-30T05:19:45.647Z,-2.03
2019-01-30T05:22:32.622Z,-2.04
2019-01-30T05:24:59.732Z,-2.04
2019-01-30T05:27:26.743Z,-2.03
2019-01-30T05:29:53.729Z,-2.04
2019-01-30T05:32:22.495Z,-2.08
2019-01-30T05:34:49.699Z,-2.00
2019-01-30T05:37:16.462Z,-2.04
2019-01-30T05:40:03.750Z,-2.05
2019-01-30T05:42:30.558Z,-2.05
2019-01-30T05:44:57.343Z,-2.08
2019-01-30T05:47:24.329Z,-2.10
2019-01-30T05:50:10.755Z,-2.07
2019-01-30T05:52:37.735Z,-2.07
2019-01-30T05:55:04.853Z,-2.05
2019-01-30T05:57:51.364Z,-2.09
2019-01-30T06:03:31.693Z,-2.11
2019-01-30T06:05:58.443Z,-2.02
2019-01-30T06:08:25.287Z,-2.02
2019-01-30T06:11:05.245Z,-2.09
2019-01-30T06:13:31.940Z,-2.02
2019-01-30T06:15:58.690Z,-2.07
2019-01-30T06:18:25.504Z,-2.07
2019-01-30T06:20:52.251Z,-2.04
2019-01-30T06:23:19.006Z,-2.12
2019-01-30T06:25:45.834Z,-2.14
2019-01-30T06:28:12.709Z,-2.11
2019-01-30T06:30:39.548Z,-2.14
2019-01-30T06:33:06.354Z,-2.07
2019-01-30T06:35:33.199Z,-2.22
2019-01-30T06:38:00.318Z,-2.17
2019-01-30T06:40:47.063Z,-2.12
2019-01-30T06:43:13.913Z,-2.12
2019-01-30T06:45:41.035Z,-2.16
2019-01-30T06:48:07.940Z,-2.10
2019-01-30T06:50:34.680Z,-2.10
2019-01-30T06:53:21.052Z,-2.08
2019-01-30T06:55:47.799Z,-2.08
2019-01-30T06:58:34.114Z,-2.16
2019-01-30T07:01:00.872Z,-2.16
2019-01-30T07:03:27.613Z,-2.14
2019-01-30T07:05:54.405Z,-2.17
2019-01-30T07:08:21.143Z,-2.08
2019-01-30T07:10:47.886Z,-2.20
2019-01-30T07:13:15.330Z,-2.15
2019-01-30T07:15:42.075Z,-2.14
2019-01-30T07:18:08.931Z,-2.12
2019-01-30T07:20:35.901Z,-2.09
2019-01-30T07:23:02.743Z,-2.05
2019-01-30T07:25:29.495Z,-2.08
2019-01-30T07:27:56.366Z,-1.96
2019-01-30T07:30:42.980Z,-1.97
2019-01-30T07:33:09.810Z,-1.82
2019-01-30T07:35:36.668Z,-1.78
2019-01-30T07:38:44.588Z,-1.73
2019-01-30T07:41:11.793Z,-1.73
2019-01-30T07:43:38.581Z,-1.66
2019-01-30T07:46:05.380Z,-1.53
2019-01-30T07:48:32.604Z,-1.48
2019-01-30T07:50:59.355Z,-1.47
2019-01-30T07:53:26.166Z,-1.34
2019-01-30T07:55:52.910Z,-1.31
2019-01-30T07:58:20.028Z,-1.20
2019-01-30T08:00:47.190Z,-1.17
2019-01-30T08:03:14.169Z,-1.14
2019-01-30T08:05:41.980Z,-1.06
2019-01-30T08:08:09.048Z,-1.05
2019-01-30T08:10:36.054Z,-0.89
2019-01-30T08:13:03.193Z,-0.86
2019-01-30T08:15:30.139Z,-0.72
2019-01-30T08:17:56.890Z,-0.67
2019-01-30T08:20:23.629Z,-0.55
2019-01-30T08:22:50.523Z,-0.51
2019-01-30T08:25:19.227Z,-0.44
2019-01-30T08:27:46.628Z,-0.34
2019-01-30T08:30:33.292Z,-0.27
2019-01-30T08:33:04.681Z,-0.19
2019-01-30T08:35:48.693Z,-0.02
2019-01-30T08:38:15.434Z,-0.02
2019-01-30T08:40:42.273Z,-0.01
2019-01-30T08:43:09.065Z,0.13
2019-01-30T08:45:36.084Z,0.02
2019-01-30T08:48:03.208Z,0.15
2019-01-30T08:50:30.298Z,0.01
2019-01-30T08:53:40.411Z,0.14
2019-01-30T08:56:26.284Z,0.17
2019-01-30T08:58:53.022Z,0.19
2019-01-30T09:01:19.761Z,0.19
2019-01-30T09:04:06.368Z,0.38
2019-01-30T09:06:33.107Z,0.38
2019-01-30T09:08:59.968Z,0.24
2019-01-30T09:11:27.045Z,0.43
2019-01-30T09:13:53.773Z,0.33
2019-01-30T09:16:20.577Z,0.50
2019-01-30T09:18:47.367Z,0.50
2019-01-30T09:21:14.103Z,0.45
2019-01-30T09:23:41.140Z,0.61
2019-01-30T09:26:08.037Z,0.52
2019-01-30T09:28:34.809Z,0.45
2019-01-30T09:31:01.774Z,0.53
2019-01-30T09:33:28.637Z,0.59
2019-01-30T09:35:55.589Z,0.62
2019-01-30T09:38:22.568Z,0.53
2019-01-30T09:40:49.366Z,0.68
2019-01-30T09:43:16.200Z,0.76
2019-01-30T09:45:42.935Z,0.97
2019-01-30T09:48:09.832Z,0.90
2019-01-30T09:50:36.671Z,1.11
2019-01-30T09:53:44.538Z,1.18
2019-01-30T09:56:11.359Z,1.05
2019-01-30T09:58:38.195Z,1.10
2019-01-30T10:01:05.270Z,1.34
2019-01-30T10:03:36.392Z,1.06
2019-01-30T10:06:00.657Z,0.98
2019-01-30T10:08:27.355Z,1.15
2019-01-30T10:10:54.083Z,1.12
2019-01-30T10:13:20.718Z,1.32
2019-01-30T10:15:47.510Z,1.23
2019-01-30T10:18:14.381Z,1.21
2019-01-30T10:20:42.572Z,1.36
2019-01-30T10:23:09.446Z,1.50
2019-01-30T10:25:36.464Z,1.50
2019-01-30T10:28:44.272Z,1.58
2019-01-30T10:31:10.998Z,1.65
2019-01-30T10:33:46.361Z,1.70
2019-01-30T10:36:06.377Z,1.75
2019-01-30T10:38:33.376Z,1.85
2019-01-30T10:41:00.097Z,1.65
2019-01-30T10:43:26.987Z,1.73
2019-01-30T10:45:53.986Z,1.87
2019-01-30T10:48:21.010Z,1.98
2019-01-30T10:50:47.692Z,2.05
2019-01-30T10:53:14.458Z,2.03
2019-01-30T10:55:41.339Z,2.15
2019-01-30T10:58:11.059Z,2.13
2019-01-30T11:00:58.751Z,2.15
2019-01-30T11:03:25.698Z,2.14
2019-01-30T11:05:52.428Z,2.14
2019-01-30T11:08:19.154Z,1.89
2019-01-30T11:10:46.047Z,1.76
2019-01-30T11:13:12.966Z,1.94
2019-01-30T11:15:39.787Z,1.94
2019-01-30T11:18:48.776Z,1.96
2019-01-30T11:21:15.570Z,1.96
2019-01-30T11:23:42.387Z,1.86
2019-01-30T11:26:09.197Z,1.78
2019-01-30T11:28:35.927Z,1.96
2019-01-30T11:31:03.154Z,2.02
2019-01-30T11:33:30.043Z,1.94
2019-01-30T11:35:56.761Z,2.11
2019-01-30T11:38:23.818Z,2.07
2019-01-30T11:40:50.607Z,2.02
2019-01-30T11:43:17.554Z,2.12
2019-01-30T11:45:44.677Z,2.11
2019-01-30T11:48:11.558Z,2.16
2019-01-30T11:50:39.791Z,2.18
2019-01-30T11:53:06.674Z,2.29
2019-01-30T11:55:33.678Z,2.33
2019-01-30T11:58:00.407Z,2.50
2019-01-30T12:01:08.322Z,2.52
2019-01-30T12:03:35.411Z,2.45
2019-01-30T12:06:02.314Z,2.55
2019-01-30T12:08:29.118Z,2.34
2019-01-30T12:10:56.115Z,2.37
2019-01-30T12:13:22.839Z,2.39
2019-01-30T12:15:49.897Z,2.36
2019-01-30T12:18:17.311Z,2.33
2019-01-30T12:20:44.431Z,2.35
2019-01-30T12:23:11.257Z,2.42
2019-01-30T12:25:37.980Z,2.37
2019-01-30T12:28:04.797Z,2.34
2019-01-30T12:30:32.040Z,2.33
2019-01-30T12:32:58.775Z,2.43
2019-01-30T12:35:25.494Z,2.38
2019-01-30T12:37:52.773Z,2.42
2019-01-30T12:41:00.607Z,2.23
2019-01-30T12:43:27.400Z,2.09
2019-01-30T12:45:54.429Z,2.16
2019-01-30T12:48:21.166Z,2.09
2019-01-30T12:50:48.047Z,2.09
2019-01-30T12:53:14.773Z,2.06
2019-01-30T12:55:41.976Z,2.00
2019-01-30T12:58:08.854Z,1.97
2019-01-30T13:00:37.795Z,1.94
2019-01-30T13:03:04.622Z,1.98
2019-01-30T13:05:31.565Z,1.92
2019-01-30T13:07:58.395Z,1.94
2019-01-30T13:10:25.226Z,1.98
2019-01-30T13:12:52.124Z,1.97
2019-01-30T13:15:20.083Z,1.94
2019-01-30T13:17:47.234Z,1.95
2019-01-30T13:20:33.560Z,2.02
2019-01-30T13:23:00.285Z,1.99
2019-01-30T13:25:29.367Z,2.05
2019-01-30T13:27:56.176Z,2.11
2019-01-30T13:30:44.944Z,2.11
2019-01-30T13:33:11.857Z,2.07
2019-01-30T13:35:38.582Z,1.97
2019-01-30T13:38:05.419Z,1.93
2019-01-30T13:40:34.490Z,1.98
2019-01-30T13:43:01.215Z,1.98
2019-01-30T13:45:28.981Z,2.01
2019-01-30T13:48:17.196Z,1.91
2019-01-30T13:50:43.830Z,1.95
2019-01-30T13:53:10.567Z,1.93
2019-01-30T13:55:37.715Z,1.92
2019-01-30T13:58:04.514Z,1.91
2019-01-30T14:00:33.201Z,1.88
2019-01-30T14:03:00.145Z,1.89
2019-01-30T14:05:27.134Z,1.84
2019-01-30T14:07:54.079Z,1.86
2019-01-30T14:10:20.962Z,1.80
2019-01-30T14:12:47.727Z,1.85
2019-01-30T14:15:16.219Z,1.83
2019-01-30T14:17:43.033Z,1.83
2019-01-30T14:20:10.838Z,1.82
2019-01-30T14:22:37.585Z,1.82
2019-01-30T14:25:26.232Z,1.83
2019-01-30T14:27:53.140Z,1.83
2019-01-30T14:30:24.972Z,1.79
2019-01-30T14:32:52.259Z,1.76
2019-01-30T14:35:19.723Z,1.73
2019-01-30T14:37:46.469Z,1.70
2019-01-30T14:40:55.435Z,1.69
2019-01-30T14:43:22.199Z,1.68
2019-01-30T14:45:49.255Z,1.69
2019-01-30T14:48:17.658Z,1.70
2019-01-30T14:50:44.453Z,1.66
2019-01-30T14:53:12.154Z,1.61
2019-01-30T14:55:38.967Z,1.60
2019-01-30T15:01:20.587Z,1.59
2019-01-30T15:03:47.626Z,1.55
2019-01-30T15:06:15.953Z,1.53
2019-01-30T15:09:06.722Z,1.47
2019-01-30T15:11:33.053Z,1.52
2019-01-30T15:13:59.832Z,1.55
2019-01-30T15:16:34.397Z,1.43
2019-01-30T15:19:01.364Z,1.36
2019-01-30T15:21:28.269Z,1.36
2019-01-30T15:23:55.414Z,1.25
2019-01-30T15:26:22.435Z,1.30
2019-01-30T15:29:01.846Z,1.32
2019-01-30T15:31:28.975Z,1.23
2019-01-30T15:33:55.852Z,1.25
2019-01-30T15:36:22.933Z,1.23
2019-01-30T15:38:49.791Z,1.17
2019-01-30T15:41:17.419Z,1.15
2019-01-30T15:43:45.236Z,1.18
2019-01-30T15:46:12.003Z,1.17
2019-01-30T15:48:39.172Z,1.09
2019-01-30T15:51:06.380Z,1.12
2019-01-30T15:53:33.549Z,1.06
2019-01-30T15:56:01.121Z,1.01
2019-01-30T15:58:28.034Z,1.02
2019-01-30T16:00:58.803Z,1.04
2019-01-30T16:03:25.697Z,1.03
2019-01-30T16:05:53.064Z,1.00
2019-01-30T16:08:19.957Z,1.11
2019-01-30T16:10:47.281Z,1.04
2019-01-30T16:13:14.273Z,0.99
2019-01-30T16:15:44.726Z,1.07
2019-01-30T16:18:11.712Z,1.03
2019-01-30T16:20:38.830Z,1.03
2019-01-30T16:23:06.189Z,1.06
2019-01-30T16:25:33.159Z,0.97
2019-01-30T16:28:00.306Z,0.95
2019-01-30T16:30:27.766Z,0.95
2019-01-30T16:32:54.573Z,0.93
2019-01-30T16:35:26.080Z,0.89
2019-01-30T16:37:53.549Z,0.93
2019-01-30T16:40:20.552Z,0.88
2019-01-30T16:42:47.607Z,0.89
2019-01-30T16:45:16.338Z,0.84
2019-01-30T16:47:43.362Z,0.69
2019-01-30T16:50:11.816Z,0.68
2019-01-30T16:52:39.073Z,0.63
2019-01-30T16:58:00.351Z,0.55
2019-01-30T17:00:29.291Z,0.60
2019-01-30T17:02:56.074Z,0.56
2019-01-30T17:05:24.172Z,0.55
2019-01-30T17:07:51.000Z,0.53
2019-01-30T17:10:17.872Z,0.53
2019-01-30T17:12:45.038Z,0.52
2019-01-30T17:15:31.596Z,0.49
2019-01-30T17:17:58.908Z,0.49
2019-01-30T17:20:28.034Z,0.45
2019-01-30T17:22:54.873Z,0.44
2019-01-30T17:25:21.777Z,0.45
2019-01-30T17:27:48.805Z,0.37
2019-01-30T17:30:36.721Z,0.37
2019-01-30T17:33:03.965Z,0.37
2019-01-30T17:35:30.829Z,0.42
2019-01-30T17:37:58.009Z,0.50
2019-01-30T17:40:24.902Z,0.52
2019-01-30T17:42:51.657Z,0.57
2019-01-30T17:45:18.615Z,0.68
2019-01-30T17:47:45.562Z,0.69
2019-01-30T17:53:09.905Z,0.77
2019-01-30T17:55:37.047Z,0.77
2019-01-30T17:58:03.996Z,0.84
2019-01-30T18:00:52.935Z,0.82
2019-01-30T18:03:20.079Z,0.78
2019-01-30T18:05:47.017Z,0.82
2019-01-30T18:08:13.845Z,0.77
2019-01-30T18:10:40.709Z,0.82
2019-01-30T18:13:07.785Z,0.79
2019-01-30T18:15:34.917Z,0.79
2019-01-30T18:18:02.068Z,0.74
2019-01-30T18:20:28.783Z,0.80
2019-01-30T18:22:55.578Z,0.73
2019-01-30T18:25:22.699Z,0.79
2019-01-30T18:27:50.077Z,0.70
2019-01-30T18:30:17.515Z,0.70
2019-01-30T18:32:44.627Z,0.67
2019-01-30T18:35:11.550Z,0.72
2019-01-30T18:37:38.407Z,0.70
2019-01-30T18:40:08.900Z,0.61
2019-01-30T18:42:35.666Z,0.57
2019-01-30T18:45:03.116Z,0.57
2019-01-30T18:47:29.841Z,0.53
2019-01-30T18:49:56.938Z,0.48
2019-01-30T18:52:24.128Z,0.47
2019-01-30T18:54:51.250Z,0.43
2019-01-30T18:57:18.230Z,0.28
2019-01-30T19:00:07.102Z,0.21
2019-01-30T19:02:34.120Z,0.15
2019-01-30T19:05:01.579Z,0.15
2019-01-30T19:07:28.270Z,0.18
2019-01-30T19:09:55.018Z,0.17
2019-01-30T19:12:21.769Z,0.13
2019-01-30T19:14:48.626Z,0.10
2019-01-30T19:17:35.186Z,0.06
2019-01-30T19:20:02.080Z,0.06
2019-01-30T19:22:28.816Z,0.07
2019-01-30T19:24:55.557Z,0.06
2019-01-30T19:27:22.607Z,0.13
2019-01-30T19:29:49.646Z,0.04
2019-01-30T19:32:17.099Z,0.07
2019-01-30T19:34:44.093Z,0.12
2019-01-30T19:37:10.881Z,0.09
2019-01-30T19:39:38.364Z,0.11
2019-01-30T19:42:05.325Z,0.05
2019-01-30T19:44:32.103Z,0.07
2019-01-30T19:46:58.748Z,0.06
2019-01-30T19:49:25.568Z,0.03
2019-01-30T19:51:52.367Z,0.03
2019-01-30T19:54:31.862Z,0.00
2019-01-30T19:56:58.532Z,-0.06
2019-01-30T19:59:25.268Z,-0.06
2019-01-30T20:01:52.055Z,-0.04
2019-01-30T20:04:18.788Z,-0.01
2019-01-30T20:06:45.785Z,-0.07
2019-01-30T20:09:32.196Z,-0.04
2019-01-30T20:11:58.932Z,0.03
2019-01-30T20:14:45.549Z,-0.04
2019-01-30T20:17:12.299Z,-0.04
2019-01-30T20:19:39.145Z,-0.03
2019-01-30T20:22:06.101Z,-0.11
2019-01-30T20:24:52.361Z,-0.11
2019-01-30T20:27:20.405Z,-0.11
2019-01-30T20:29:47.255Z,-0.10
2019-01-30T20:32:14.529Z,-0.14
2019-01-30T20:35:00.926Z,-0.18
2019-01-30T20:37:28.337Z,-0.18
2019-01-30T20:40:07.664Z,-0.14
2019-01-30T20:42:34.657Z,-0.20
2019-01-30T20:45:02.170Z,-0.19
2019-01-30T20:47:29.859Z,-0.17
2019-01-30T20:49:57.131Z,-0.16
2019-01-30T20:52:24.004Z,-0.26
2019-01-30T20:54:59.613Z,-0.22
2019-01-30T20:57:39.806Z,-0.17
2019-01-30T21:00:28.280Z,-0.17
2019-01-30T21:03:15.035Z,-0.25
2019-01-30T21:05:44.952Z,-0.25
2019-01-30T21:08:11.139Z,-0.24
2019-01-30T21:10:39.961Z,-0.27
2019-01-30T21:13:07.458Z,-0.25
2019-01-30T21:15:34.278Z,-0.21
2019-01-30T21:18:01.389Z,-0.21
2019-01-30T21:20:28.248Z,-0.30
2019-01-30T21:23:14.610Z,-0.28
2019-01-30T21:25:41.477Z,-0.28
2019-01-30T21:28:27.746Z,-0.29
2019-01-30T21:30:54.541Z,-0.29
2019-01-30T21:33:21.272Z,-0.36
2019-01-30T21:35:48.013Z,-0.35
2019-01-30T21:38:14.812Z,-0.37
2019-01-30T21:40:54.186Z,-0.40
2019-01-30T21:43:20.969Z,-0.40
2019-01-30T21:45:47.700Z,-0.35
2019-01-30T21:48:14.570Z,-0.35
2019-01-30T21:50:41.369Z,-0.34
2019-01-30T21:53:27.628Z,-0.33
2019-01-30T21:55:55.081Z,-0.33
2019-01-30T21:58:21.856Z,-0.43
2019-01-30T22:00:48.594Z,-0.36
2019-01-30T22:03:15.788Z,-0.40
2019-01-30T22:05:43.094Z,-0.35
2019-01-30T22:08:10.113Z,-0.39
2019-01-30T22:10:36.920Z,-0.40
2019-01-30T22:13:03.968Z,-0.36
2019-01-30T22:15:31.083Z,-0.42
2019-01-30T22:17:58.225Z,-0.42
2019-01-30T22:20:44.502Z,-0.49
2019-01-30T22:23:11.336Z,-0.49
2019-01-30T22:25:57.976Z,-0.51
2019-01-30T22:28:44.990Z,-0.45
2019-01-30T22:31:31.326Z,-0.45
2019-01-30T22:33:58.196Z,-0.48
2019-01-30T22:36:24.923Z,-0.48
2019-01-30T22:38:51.763Z,-0.47
2019-01-30T22:41:18.553Z,-0.47
2019-01-30T22:43:45.484Z,-0.48
2019-01-30T22:46:12.223Z,-0.48
2019-01-30T22:48:39.322Z,-0.47
2019-01-30T22:51:06.065Z,-0.48
2019-01-30T22:53:32.798Z,-0.41
2019-01-30T22:55:59.610Z,-0.48
2019-01-30T22:58:26.357Z,-0.49
2019-01-30T23:01:32.378Z,-0.50
2019-01-30T23:04:38.238Z,-0.50
2019-01-30T23:07:44.517Z,-0.52
2019-01-30T23:10:36.084Z,-0.46
2019-01-30T23:13:42.305Z,-0.49
2019-01-30T23:16:48.178Z,-0.54
2019-01-30T23:19:37.799Z,-0.58
2019-01-30T23:22:43.665Z,-0.59
2019-01-30T23:25:37.920Z,-0.61
2019-01-30T23:28:29.605Z,-0.58
2019-01-30T23:31:35.565Z,-0.61
2019-01-30T23:34:30.810Z,-0.58
2019-01-30T23:37:36.811Z,-0.64
2019-01-30T23:40:42.684Z,-0.64
2019-01-30T23:43:48.634Z,-0.65
2019-01-30T23:46:54.588Z,-0.62
2019-01-30T23:50:06.531Z,-0.55
2019-01-30T23:53:03.097Z,-0.62
2019-01-30T23:55:53.226Z,-0.64
2019-01-30T23:58:59.087Z,-0.61
